createdAt,value
2022-10-25T00:03:31.964Z,17.02
2022-10-25T00:07:34.014Z,17.00
2022-10-25T00:11:36.077Z,15.73
2022-10-25T00:15:38.162Z,16.23
2022-10-25T00:19:40.062Z,17.48
2022-10-25T00:23:42.324Z,16.73
2022-10-25T00:27:44.296Z,16.98
2022-10-25T00:31:46.385Z,17.17
2022-10-25T00:35:48.327Z,17.52
2022-10-25T00:39:50.308Z,18.45
2022-10-25T00:43:54.583Z,17.85
2022-10-25T00:47:58.434Z,17.70
2022-10-25T00:52:05.647Z,19.20
2022-10-25T00:56:16.489Z,18.48
2022-10-25T01:00:18.777Z,17.33
2022-10-25T01:04:24.900Z,17.52
2022-10-25T01:08:27.167Z,17.13
2022-10-25T01:12:29.490Z,18.88
2022-10-25T01:16:34.466Z,34.28
2022-10-25T01:21:13.824Z,27.98
2022-10-25T01:25:27.863Z,29.08
2022-10-25T01:29:52.458Z,32.97
2022-10-25T01:33:57.374Z,29.15
2022-10-25T01:38:21.311Z,22.67
2022-10-25T01:42:46.700Z,19.17
2022-10-25T01:46:54.509Z,18.25
2022-10-25T01:51:05.943Z,17.85
2022-10-25T01:55:13.355Z,16.95
2022-10-25T01:59:37.584Z,17.50
2022-10-25T02:03:45.023Z,18.77
2022-10-25T02:08:22.069Z,16.08
2022-10-25T02:12:42.239Z,17.73
2022-10-25T02:16:50.690Z,21.67
2022-10-25T02:20:58.039Z,17.80
2022-10-25T02:25:01.189Z,19.17
2022-10-25T02:29:07.018Z,18.20
2022-10-25T02:33:09.283Z,17.83
2022-10-25T02:37:11.229Z,17.52
2022-10-25T02:41:13.180Z,19.17
2022-10-25T02:45:15.321Z,18.75
2022-10-25T02:49:17.412Z,37.42
2022-10-25T02:53:19.759Z,26.15
2022-10-25T02:57:21.757Z,23.85
2022-10-25T03:01:24.808Z,23.08
2022-10-25T03:05:26.811Z,20.10
2022-10-25T03:09:28.951Z,16.40
2022-10-25T03:13:31.625Z,23.95
2022-10-25T03:17:33.780Z,17.23
2022-10-25T03:21:38.669Z,15.73
2022-10-25T03:25:44.541Z,16.48
2022-10-25T03:29:46.476Z,15.57
2022-10-25T03:33:48.401Z,14.35
2022-10-25T03:37:51.381Z,14.02
2022-10-25T03:41:53.319Z,16.27
2022-10-25T03:45:55.283Z,14.27
2022-10-25T03:49:57.284Z,15.40
2022-10-25T03:53:59.292Z,16.30
2022-10-25T03:58:01.463Z,15.57
2022-10-25T04:02:03.546Z,14.60
2022-10-25T04:06:05.852Z,15.82
2022-10-25T04:10:08.149Z,15.77
2022-10-25T04:14:10.254Z,17.02
2022-10-25T04:18:12.257Z,17.85
2022-10-25T04:22:14.971Z,21.10
2022-10-25T04:26:18.865Z,19.95
2022-10-25T04:30:20.920Z,14.82
2022-10-25T04:34:22.838Z,18.48
2022-10-25T04:38:25.261Z,17.15
2022-10-25T04:42:27.238Z,17.40
2022-10-25T04:46:29.139Z,17.20
2022-10-25T04:50:31.099Z,16.83
2022-10-25T04:54:34.289Z,17.40
2022-10-25T04:58:36.917Z,18.48
2022-10-25T05:02:38.929Z,20.02
2022-10-25T05:06:40.951Z,18.67
2022-10-25T05:10:42.893Z,21.30
2022-10-25T05:19:29.159Z,24.33
2022-10-25T05:23:33.027Z,26.63
2022-10-25T05:27:39.238Z,28.63
2022-10-25T05:31:41.580Z,24.90
2022-10-25T05:35:43.547Z,21.08
2022-10-25T05:39:45.499Z,25.75
2022-10-25T05:43:47.790Z,21.27
2022-10-25T05:47:49.716Z,24.73
2022-10-25T05:51:51.735Z,26.88
2022-10-25T05:55:53.802Z,23.92
2022-10-25T05:59:55.758Z,24.15
2022-10-25T06:03:58.169Z,25.75
2022-10-25T06:08:00.076Z,22.20
2022-10-25T06:12:03.040Z,20.77
2022-10-25T06:16:09.375Z,18.48
2022-10-25T06:24:13.820Z,18.80
2022-10-25T06:28:15.795Z,17.77
2022-10-25T06:32:18.136Z,18.13
2022-10-25T06:36:23.149Z,18.45
2022-10-25T06:40:25.129Z,17.52
2022-10-25T06:44:27.025Z,17.15
2022-10-25T06:48:29.492Z,17.52
2022-10-25T06:52:31.437Z,17.70
2022-10-25T06:56:34.184Z,18.50
2022-10-25T07:00:36.156Z,17.95
2022-10-25T07:04:38.280Z,18.42
2022-10-25T07:08:43.367Z,17.77
2022-10-25T07:12:45.806Z,18.13
2022-10-25T07:16:47.822Z,17.42
2022-10-25T07:20:50.808Z,17.40
2022-10-25T07:24:52.844Z,16.83
2022-10-25T07:28:57.112Z,15.32
2022-10-25T07:37:01.217Z,14.32
2022-10-25T07:41:03.580Z,14.05
2022-10-25T07:45:06.368Z,16.27
2022-10-25T07:49:08.343Z,13.30
2022-10-25T07:53:10.273Z,12.88
2022-10-25T07:57:12.407Z,13.05
2022-10-25T08:01:20.013Z,12.43
2022-10-25T08:05:22.090Z,13.55
2022-10-25T08:09:37.798Z,13.48
2022-10-25T08:13:40.985Z,12.10
2022-10-25T08:17:43.097Z,12.07
2022-10-25T08:21:45.062Z,12.65
2022-10-25T08:25:47.284Z,10.98
2022-10-25T08:29:49.235Z,11.23
2022-10-25T08:33:51.160Z,11.10
2022-10-25T08:37:53.080Z,13.02
2022-10-25T08:41:57.570Z,12.65
2022-10-25T08:46:13.708Z,11.82
2022-10-25T08:50:20.597Z,13.25
2022-10-25T08:54:49.953Z,12.07
2022-10-25T08:58:55.884Z,11.73
2022-10-25T09:03:00.166Z,10.98
2022-10-25T09:07:02.644Z,11.35
2022-10-25T09:11:31.318Z,10.52
2022-10-25T09:15:50.487Z,10.40
2022-10-25T09:19:52.367Z,10.38
2022-10-25T09:24:21.573Z,10.27
2022-10-25T09:29:02.487Z,9.20
2022-10-25T09:33:11.393Z,10.07
2022-10-25T09:37:25.470Z,9.52
2022-10-25T09:41:33.769Z,8.80
2022-10-25T09:45:52.157Z,8.38
2022-10-25T09:50:06.974Z,9.15
2022-10-25T09:54:23.471Z,8.10
2022-10-25T09:58:29.262Z,8.55
2022-10-25T10:02:31.556Z,6.90
2022-10-25T10:06:38.058Z,6.78
2022-10-25T10:10:41.006Z,7.53
2022-10-25T10:14:56.786Z,7.78
2022-10-25T10:19:21.553Z,6.93
2022-10-25T10:23:24.063Z,7.75
2022-10-25T10:27:27.996Z,8.63
2022-10-25T10:31:43.422Z,8.32
2022-10-25T10:35:45.374Z,7.85
2022-10-25T10:39:55.039Z,8.15
2022-10-25T10:44:14.225Z,7.00
2022-10-25T10:48:22.274Z,7.50
2022-10-25T10:52:46.312Z,8.70
2022-10-25T10:57:00.926Z,10.55
2022-10-25T11:01:12.778Z,8.13
2022-10-25T11:05:25.462Z,6.40
2022-10-25T11:09:28.025Z,7.37
2022-10-25T11:13:30.053Z,7.53
2022-10-25T11:17:39.712Z,7.22
2022-10-25T11:21:46.576Z,7.93
2022-10-25T11:25:56.591Z,6.88
2022-10-25T11:30:20.028Z,8.18
2022-10-25T11:34:51.743Z,7.40
2022-10-25T11:39:15.685Z,7.05
2022-10-25T11:48:10.992Z,7.07
2022-10-25T11:52:22.275Z,6.70
2022-10-25T11:56:38.245Z,7.68
2022-10-25T12:01:06.562Z,7.13
2022-10-25T12:05:08.951Z,7.05
2022-10-25T12:09:29.469Z,6.55
2022-10-25T12:13:36.791Z,7.55
2022-10-25T12:17:39.442Z,6.60
2022-10-25T12:21:46.194Z,7.18
2022-10-25T12:25:52.821Z,5.57
2022-10-25T12:30:00.564Z,5.75
2022-10-25T12:34:25.948Z,5.25
2022-10-25T12:38:34.568Z,5.47
2022-10-25T12:43:16.365Z,5.65
2022-10-25T12:47:44.607Z,5.65
2022-10-25T12:52:17.615Z,4.97
2022-10-25T12:56:33.810Z,4.80
2022-10-25T13:00:44.429Z,5.50
2022-10-25T13:04:53.959Z,5.57
2022-10-25T13:09:03.083Z,5.55
2022-10-25T13:13:18.453Z,5.68
2022-10-25T13:17:20.319Z,5.75
2022-10-25T13:21:53.976Z,5.22
2022-10-25T13:25:56.017Z,5.22
2022-10-25T13:30:07.046Z,5.97
2022-10-25T13:34:12.045Z,5.93
2022-10-25T13:38:22.027Z,4.53
2022-10-25T13:42:33.302Z,5.25
2022-10-25T13:46:41.187Z,5.28
2022-10-25T13:51:13.096Z,4.80
2022-10-25T13:55:16.541Z,5.10
2022-10-25T13:59:47.979Z,4.63
2022-10-25T14:03:54.187Z,5.47
2022-10-25T14:08:17.076Z,28.13
2022-10-25T14:12:21.535Z,33.47
2022-10-25T14:16:32.999Z,20.23
2022-10-25T14:20:36.409Z,11.93
2022-10-25T14:24:42.285Z,5.95
2022-10-25T14:28:44.361Z,6.47
2022-10-25T14:32:56.143Z,6.57
2022-10-25T14:36:58.683Z,6.00
2022-10-25T14:41:11.817Z,4.78
2022-10-25T14:45:21.042Z,6.17
2022-10-25T14:49:24.039Z,5.47
2022-10-25T14:53:28.494Z,5.30
2022-10-25T14:57:31.608Z,5.00
2022-10-25T15:01:34.762Z,5.10
2022-10-25T15:05:41.096Z,7.75
2022-10-25T15:09:55.997Z,32.85
2022-10-25T15:13:58.290Z,35.78
2022-10-25T15:18:00.395Z,13.65
2022-10-25T15:22:10.669Z,8.25
2022-10-25T15:26:25.206Z,5.72
2022-10-25T15:30:40.336Z,5.82
2022-10-25T15:34:44.594Z,6.10
2022-10-25T15:39:07.265Z,5.47
2022-10-25T15:43:08.422Z,6.00
2022-10-25T15:47:26.299Z,6.32
2022-10-25T15:51:31.126Z,5.38
2022-10-25T15:55:33.268Z,6.90
2022-10-25T15:59:35.392Z,10.13
2022-10-25T16:03:37.350Z,16.33
2022-10-25T16:07:39.302Z,11.45
2022-10-25T16:11:46.943Z,8.18
2022-10-25T16:15:49.703Z,7.80
2022-10-25T16:19:51.607Z,8.50
2022-10-25T16:23:53.537Z,16.92
2022-10-25T16:27:55.500Z,8.30
2022-10-25T16:31:57.381Z,7.47
2022-10-25T16:35:59.296Z,7.93
2022-10-25T16:40:01.994Z,7.30
2022-10-25T16:44:04.020Z,6.88
2022-10-25T16:48:06.487Z,7.63
2022-10-25T16:52:08.764Z,7.88
2022-10-25T16:56:11.545Z,8.00
2022-10-25T17:00:15.269Z,8.90
2022-10-25T17:04:17.194Z,9.07
2022-10-25T17:08:19.092Z,9.23
2022-10-25T17:12:21.075Z,10.70
2022-10-25T17:16:23.157Z,9.40
2022-10-25T17:20:25.114Z,11.43
2022-10-25T17:24:27.199Z,10.30
2022-10-25T17:28:30.558Z,10.30
2022-10-25T17:32:32.482Z,10.37
2022-10-25T17:36:34.471Z,11.32
2022-10-25T17:40:42.170Z,10.27
2022-10-25T17:44:44.675Z,9.82
2022-10-25T17:48:46.993Z,10.88
2022-10-25T17:52:50.696Z,10.95
2022-10-25T17:56:56.483Z,10.80
2022-10-25T18:01:04.020Z,10.15
2022-10-25T18:05:19.924Z,10.23
2022-10-25T18:09:22.579Z,11.45
2022-10-25T18:13:25.530Z,14.20
2022-10-25T18:17:27.607Z,13.40
2022-10-25T18:21:29.795Z,13.95
2022-10-25T18:25:31.767Z,12.35
2022-10-25T18:29:35.038Z,12.38
2022-10-25T18:33:39.132Z,12.10
2022-10-25T18:37:41.092Z,11.75
2022-10-25T18:41:44.280Z,12.25
2022-10-25T18:45:46.626Z,12.55
2022-10-25T18:49:48.928Z,12.27
2022-10-25T18:53:55.358Z,11.60
2022-10-25T18:57:58.787Z,11.80
2022-10-25T19:02:01.078Z,14.33
2022-10-25T19:06:04.073Z,15.48
2022-10-25T19:10:06.506Z,15.85
2022-10-25T19:14:08.458Z,14.20
2022-10-25T19:18:10.521Z,14.98
2022-10-25T19:22:12.528Z,14.45
2022-10-25T19:26:18.218Z,15.75
2022-10-25T19:30:20.707Z,14.82
2022-10-25T19:38:26.516Z,14.00
2022-10-25T19:42:28.618Z,13.55
2022-10-25T19:46:30.617Z,14.27
2022-10-25T19:50:33.609Z,15.00
2022-10-25T19:54:35.718Z,14.00
2022-10-25T19:58:37.754Z,13.73
2022-10-25T20:02:40.082Z,15.52
2022-10-25T20:06:42.072Z,14.23
2022-10-25T20:10:44.058Z,14.55
2022-10-25T20:14:46.094Z,13.77
2022-10-25T20:18:48.111Z,13.40
2022-10-25T20:22:50.089Z,15.50
2022-10-25T20:26:53.346Z,13.93
2022-10-25T20:31:03.275Z,16.35
2022-10-25T20:35:05.736Z,16.70
2022-10-25T20:39:07.601Z,14.73
2022-10-25T20:43:09.488Z,15.52
2022-10-25T20:47:11.464Z,14.70
2022-10-25T20:51:15.678Z,15.70
2022-10-25T20:59:21.174Z,12.40
2022-10-25T21:03:28.032Z,12.68
2022-10-25T21:07:31.582Z,13.10
2022-10-25T21:11:33.699Z,12.87
2022-10-25T21:15:36.627Z,12.63
2022-10-25T21:19:38.522Z,13.57
2022-10-25T21:23:41.368Z,12.90
2022-10-25T21:27:43.358Z,13.63
2022-10-25T21:31:45.419Z,15.00
2022-10-25T21:35:47.380Z,13.95
2022-10-25T21:39:49.307Z,12.25
2022-10-25T21:43:51.456Z,12.02
2022-10-25T21:47:53.401Z,12.32
2022-10-25T21:51:56.001Z,13.52
2022-10-25T21:56:12.541Z,12.95
2022-10-25T22:00:14.861Z,16.00
2022-10-25T22:04:17.478Z,14.93
2022-10-25T22:08:21.928Z,14.05
2022-10-25T22:16:26.059Z,14.35
2022-10-25T22:20:28.140Z,14.27
2022-10-25T22:24:30.177Z,13.43
2022-10-25T22:28:35.473Z,13.77
2022-10-25T22:32:40.260Z,14.52
2022-10-25T22:36:42.564Z,12.05
2022-10-25T22:40:44.487Z,13.25
2022-10-25T22:44:46.403Z,14.40
2022-10-25T22:48:48.568Z,12.68
2022-10-25T22:52:50.677Z,14.25
2022-10-25T22:56:52.670Z,15.13
2022-10-25T23:01:33.907Z,15.23
2022-10-25T23:05:35.879Z,18.20
2022-10-25T23:09:37.937Z,18.48
2022-10-25T23:13:40.474Z,27.02
2022-10-25T23:17:42.504Z,18.70
2022-10-25T23:21:45.198Z,20.52
2022-10-25T23:25:48.422Z,19.98
2022-10-25T23:29:50.690Z,16.52
2022-10-25T23:33:54.976Z,13.90
2022-10-25T23:37:57.379Z,15.32
2022-10-25T23:41:59.368Z,14.20
2022-10-25T23:46:01.618Z,15.15
2022-10-25T23:50:03.832Z,16.40
2022-10-25T23:54:09.490Z,14.93
2022-10-25T23:58:11.553Z,15.50
